sensor_id;sensor_type;location;lat;lon;timestamp;pressure;altitude;pressure_sealevel;temperature;humidity
3748;BME280;1889;50.058;8.688;2023-06-10T00:01:29;99958.50;;;22.79;48.39
3748;BME280;1889;50.058;8.688;2023-06-10T00:03:58;99958.84;;;22.74;48.62
3748;BME280;1889;50.058;8.688;2023-06-10T00:06:27;99960.35;;;22.71;48.98
3748;BME280;1889;50.058;8.688;2023-06-10T00:08:58;99956.67;;;22.67;49.25
3748;BME280;1889;50.058;8.688;2023-06-10T00:11:28;99953.98;;;22.67;48.95
3748;BME280;1889;50.058;8.688;2023-06-10T00:13:58;99954.95;;;22.66;49.16
3748;BME280;1889;50.058;8.688;2023-06-10T00:16:27;99956.63;;;22.61;49.37
3748;BME280;1889;50.058;8.688;2023-06-10T00:18:56;99946.14;;;22.64;48.85
3748;BME280;1889;50.058;8.688;2023-06-10T00:21:29;99948.50;;;22.56;49.41
3748;BME280;1889;50.058;8.688;2023-06-10T00:24:00;99954.58;;;22.52;49.81
3748;BME280;1889;50.058;8.688;2023-06-10T00:26:31;99952.00;;;22.51;49.46
3748;BME280;1889;50.058;8.688;2023-06-10T00:29:00;99952.83;;;22.26;49.94
3748;BME280;1889;50.058;8.688;2023-06-10T00:31:29;99947.37;;;22.27;49.87
3748;BME280;1889;50.058;8.688;2023-06-10T00:33:58;99949.63;;;22.33;49.70
3748;BME280;1889;50.058;8.688;2023-06-10T00:36:28;99953.84;;;22.30;49.81
3748;BME280;1889;50.058;8.688;2023-06-10T00:38:57;99949.67;;;22.26;50.00
3748;BME280;1889;50.058;8.688;2023-06-10T00:41:26;99951.59;;;22.24;50.41
3748;BME280;1889;50.058;8.688;2023-06-10T00:43:56;99945.12;;;22.21;50.35
3748;BME280;1889;50.058;8.688;2023-06-10T00:46:25;99957.38;;;22.18;50.74
3748;BME280;1889;50.058;8.688;2023-06-10T00:48:55;99948.14;;;22.22;50.97
3748;BME280;1889;50.058;8.688;2023-06-10T00:51:24;99947.23;;;22.16;51.23
3748;BME280;1889;50.058;8.688;2023-06-10T00:53:53;99947.47;;;22.13;51.03
3748;BME280;1889;50.058;8.688;2023-06-10T00:56:22;99953.55;;;22.15;51.13
3748;BME280;1889;50.058;8.688;2023-06-10T00:58:52;99954.98;;;22.01;51.31
3748;BME280;1889;50.058;8.688;2023-06-10T01:01:21;99955.46;;;22.00;51.61
3748;BME280;1889;50.058;8.688;2023-06-10T01:03:50;99958.95;;;21.61;52.80
3748;BME280;1889;50.058;8.688;2023-06-10T01:06:41;99961.41;;;21.72;52.24
3748;BME280;1889;50.058;8.688;2023-06-10T01:11:32;99956.88;;;21.79;52.10
3748;BME280;1889;50.058;8.688;2023-06-10T01:14:00;99960.58;;;21.64;52.63
3748;BME280;1889;50.058;8.688;2023-06-10T01:16:30;99964.09;;;21.72;52.54
3748;BME280;1889;50.058;8.688;2023-06-10T01:19:00;99960.64;;;21.69;52.52
3748;BME280;1889;50.058;8.688;2023-06-10T01:21:29;99961.38;;;21.79;52.51
3748;BME280;1889;50.058;8.688;2023-06-10T01:23:59;99960.07;;;21.72;52.52
3748;BME280;1889;50.058;8.688;2023-06-10T01:26:32;99962.36;;;21.70;52.61
3748;BME280;1889;50.058;8.688;2023-06-10T01:29:11;99963.23;;;21.71;52.65
3748;BME280;1889;50.058;8.688;2023-06-10T01:31:45;99966.48;;;21.69;52.92
3748;BME280;1889;50.058;8.688;2023-06-10T01:34:16;99965.72;;;21.67;52.86
3748;BME280;1889;50.058;8.688;2023-06-10T01:36:48;99963.98;;;21.66;53.15
3748;BME280;1889;50.058;8.688;2023-06-10T01:39:20;99963.83;;;21.62;53.12
3748;BME280;1889;50.058;8.688;2023-06-10T01:41:49;99971.28;;;21.57;53.38
3748;BME280;1889;50.058;8.688;2023-06-10T01:44:22;99967.11;;;21.53;53.14
3748;BME280;1889;50.058;8.688;2023-06-10T01:46:52;99969.13;;;21.56;53.22
3748;BME280;1889;50.058;8.688;2023-06-10T01:49:21;99968.26;;;21.56;53.13
3748;BME280;1889;50.058;8.688;2023-06-10T01:51:51;99966.92;;;21.56;53.08
3748;BME280;1889;50.058;8.688;2023-06-10T01:54:20;99966.31;;;21.58;53.25
3748;BME280;1889;50.058;8.688;2023-06-10T01:56:49;99970.08;;;21.55;53.46
3748;BME280;1889;50.058;8.688;2023-06-10T01:59:18;99965.30;;;21.53;53.24
3748;BME280;1889;50.058;8.688;2023-06-10T02:01:47;99959.45;;;21.54;53.13
3748;BME280;1889;50.058;8.688;2023-06-10T02:04:16;99967.77;;;21.49;53.37
3748;BME280;1889;50.058;8.688;2023-06-10T02:06:46;99966.55;;;21.41;53.50
3748;BME280;1889;50.058;8.688;2023-06-10T02:09:16;99968.40;;;21.40;53.44
3748;BME280;1889;50.058;8.688;2023-06-10T02:11:46;99964.77;;;21.13;54.42
3748;BME280;1889;50.058;8.688;2023-06-10T02:14:15;99968.50;;;21.03;54.65
3748;BME280;1889;50.058;8.688;2023-06-10T02:16:44;99969.65;;;21.13;54.23
3748;BME280;1889;50.058;8.688;2023-06-10T02:19:14;99967.56;;;21.18;54.13
3748;BME280;1889;50.058;8.688;2023-06-10T02:21:43;99967.65;;;21.17;54.33
3748;BME280;1889;50.058;8.688;2023-06-10T02:24:12;99961.24;;;21.05;54.63
3748;BME280;1889;50.058;8.688;2023-06-10T02:26:41;99963.63;;;21.03;54.82
3748;BME280;1889;50.058;8.688;2023-06-10T02:29:10;99967.09;;;20.98;54.83
3748;BME280;1889;50.058;8.688;2023-06-10T02:31:39;99960.19;;;20.93;55.08
3748;BME280;1889;50.058;8.688;2023-06-10T02:34:08;99960.19;;;20.93;54.87
3748;BME280;1889;50.058;8.688;2023-06-10T02:36:38;99962.60;;;20.91;54.89
3748;BME280;1889;50.058;8.688;2023-06-10T02:39:07;99966.12;;;20.99;55.12
3748;BME280;1889;50.058;8.688;2023-06-10T02:41:36;99965.35;;;21.04;55.29
3748;BME280;1889;50.058;8.688;2023-06-10T02:44:05;99960.38;;;21.05;54.97
3748;BME280;1889;50.058;8.688;2023-06-10T02:46:34;99961.99;;;21.00;55.05
3748;BME280;1889;50.058;8.688;2023-06-10T02:49:03;99969.00;;;20.88;55.28
3748;BME280;1889;50.058;8.688;2023-06-10T02:51:32;99962.00;;;20.93;55.17
3748;BME280;1889;50.058;8.688;2023-06-10T02:54:01;99967.83;;;20.92;55.17
3748;BME280;1889;50.058;8.688;2023-06-10T02:56:31;99970.42;;;20.80;56.00
3748;BME280;1889;50.058;8.688;2023-06-10T02:59:01;99975.56;;;20.76;55.88
3748;BME280;1889;50.058;8.688;2023-06-10T03:01:30;99976.94;;;20.83;55.87
3748;BME280;1889;50.058;8.688;2023-06-10T03:03:59;99971.17;;;20.68;56.52
3748;BME280;1889;50.058;8.688;2023-06-10T03:06:28;99981.05;;;20.67;56.45
3748;BME280;1889;50.058;8.688;2023-06-10T03:08:57;99977.20;;;20.71;56.18
3748;BME280;1889;50.058;8.688;2023-06-10T03:11:27;99976.72;;;20.50;56.96
3748;BME280;1889;50.058;8.688;2023-06-10T03:13:57;99978.63;;;20.18;57.82
3748;BME280;1889;50.058;8.688;2023-06-10T03:16:26;99977.65;;;20.19;57.65
3748;BME280;1889;50.058;8.688;2023-06-10T03:18:55;99982.32;;;20.39;57.00
3748;BME280;1889;50.058;8.688;2023-06-10T03:21:24;99985.69;;;20.42;56.85
3748;BME280;1889;50.058;8.688;2023-06-10T03:23:54;99984.36;;;20.49;56.67
3748;BME280;1889;50.058;8.688;2023-06-10T03:26:23;99987.38;;;20.43;56.84
3748;BME280;1889;50.058;8.688;2023-06-10T03:28:53;99989.87;;;20.39;56.86
3748;BME280;1889;50.058;8.688;2023-06-10T03:31:22;99988.33;;;20.12;57.66
3748;BME280;1889;50.058;8.688;2023-06-10T03:33:52;99989.88;;;20.16;57.66
3748;BME280;1889;50.058;8.688;2023-06-10T03:36:21;99995.42;;;20.28;57.24
3748;BME280;1889;50.058;8.688;2023-06-10T03:38:50;99997.61;;;19.91;58.52
3748;BME280;1889;50.058;8.688;2023-06-10T03:41:20;99994.96;;;19.98;58.38
3748;BME280;1889;50.058;8.688;2023-06-10T03:43:49;99993.95;;;20.08;58.00
3748;BME280;1889;50.058;8.688;2023-06-10T03:46:18;99989.68;;;19.90;58.68
3748;BME280;1889;50.058;8.688;2023-06-10T03:48:47;99996.99;;;20.02;58.29
3748;BME280;1889;50.058;8.688;2023-06-10T03:51:16;99998.47;;;20.22;57.23
3748;BME280;1889;50.058;8.688;2023-06-10T03:53:45;99998.47;;;20.22;57.23
3748;BME280;1889;50.058;8.688;2023-06-10T03:56:15;100000.21;;;20.30;57.25
3748;BME280;1889;50.058;8.688;2023-06-10T03:58:44;100006.08;;;20.36;56.83
3748;BME280;1889;50.058;8.688;2023-06-10T04:01:13;100005.61;;;20.37;56.81
3748;BME280;1889;50.058;8.688;2023-06-10T04:03:42;100005.91;;;20.39;56.66
3748;BME280;1889;50.058;8.688;2023-06-10T04:06:11;100003.33;;;20.45;56.71
3748;BME280;1889;50.058;8.688;2023-06-10T04:08:41;100004.20;;;20.52;56.25
3748;BME280;1889;50.058;8.688;2023-06-10T04:11:10;100005.38;;;20.63;55.88
3748;BME280;1889;50.058;8.688;2023-06-10T04:13:39;100003.56;;;20.63;56.09
3748;BME280;1889;50.058;8.688;2023-06-10T04:16:09;100005.29;;;20.64;56.10
3748;BME280;1889;50.058;8.688;2023-06-10T04:18:38;100006.81;;;20.68;56.14
3748;BME280;1889;50.058;8.688;2023-06-10T04:21:08;100006.55;;;20.73;55.84
3748;BME280;1889;50.058;8.688;2023-06-10T04:23:37;100007.50;;;20.79;55.74
3748;BME280;1889;50.058;8.688;2023-06-10T04:26:06;100010.95;;;20.81;55.75
3748;BME280;1889;50.058;8.688;2023-06-10T04:28:36;100011.59;;;20.84;55.50
3748;BME280;1889;50.058;8.688;2023-06-10T04:31:05;100010.95;;;20.88;55.57
3748;BME280;1889;50.058;8.688;2023-06-10T04:33:34;100005.98;;;20.89;55.07
3748;BME280;1889;50.058;8.688;2023-06-10T04:36:04;100013.23;;;20.94;55.22
3748;BME280;1889;50.058;8.688;2023-06-10T04:38:34;100005.33;;;21.00;54.52
3748;BME280;1889;50.058;8.688;2023-06-10T04:41:03;100000.23;;;21.02;54.38
3748;BME280;1889;50.058;8.688;2023-06-10T04:43:32;100000.23;;;21.02;54.38
3748;BME280;1889;50.058;8.688;2023-06-10T04:46:02;100009.41;;;21.12;53.69
3748;BME280;1889;50.058;8.688;2023-06-10T04:48:32;100004.74;;;21.16;53.91
3748;BME280;1889;50.058;8.688;2023-06-10T04:51:02;100008.02;;;21.21;53.71
3748;BME280;1889;50.058;8.688;2023-06-10T04:53:33;100011.16;;;21.27;53.63
3748;BME280;1889;50.058;8.688;2023-06-10T04:56:02;100008.47;;;21.27;53.77
3748;BME280;1889;50.058;8.688;2023-06-10T04:58:31;100006.47;;;21.31;53.48
3748;BME280;1889;50.058;8.688;2023-06-10T05:01:00;100001.36;;;21.41;53.74
3748;BME280;1889;50.058;8.688;2023-06-10T05:03:29;99998.05;;;21.30;53.47
3748;BME280;1889;50.058;8.688;2023-06-10T05:05:59;99998.05;;;21.30;53.47
3748;BME280;1889;50.058;8.688;2023-06-10T05:08:28;100008.35;;;21.43;53.01
3748;BME280;1889;50.058;8.688;2023-06-10T05:10:57;100010.06;;;21.51;52.82
3748;BME280;1889;50.058;8.688;2023-06-10T05:13:27;100015.39;;;21.58;53.04
3748;BME280;1889;50.058;8.688;2023-06-10T05:15:56;100014.89;;;21.66;52.60
3748;BME280;1889;50.058;8.688;2023-06-10T05:18:25;100013.75;;;21.70;52.82
3748;BME280;1889;50.058;8.688;2023-06-10T05:20:54;100020.52;;;21.76;52.88
3748;BME280;1889;50.058;8.688;2023-06-10T05:23:23;100016.86;;;21.84;52.28
3748;BME280;1889;50.058;8.688;2023-06-10T05:25:52;100022.22;;;21.84;52.47
3748;BME280;1889;50.058;8.688;2023-06-10T05:28:21;100028.80;;;21.92;52.36
3748;BME280;1889;50.058;8.688;2023-06-10T05:30:50;100030.42;;;22.02;51.57
3748;BME280;1889;50.058;8.688;2023-06-10T05:33:19;100024.11;;;22.03;51.51
3748;BME280;1889;50.058;8.688;2023-06-10T05:35:48;100027.13;;;22.11;51.48
3748;BME280;1889;50.058;8.688;2023-06-10T05:38:18;100028.63;;;22.15;51.18
3748;BME280;1889;50.058;8.688;2023-06-10T05:40:47;100030.61;;;21.99;51.25
3748;BME280;1889;50.058;8.688;2023-06-10T05:43:16;100028.89;;;22.05;50.96
3748;BME280;1889;50.058;8.688;2023-06-10T05:45:45;100033.73;;;22.13;50.72
3748;BME280;1889;50.058;8.688;2023-06-10T05:50:42;100030.70;;;22.24;50.35
3748;BME280;1889;50.058;8.688;2023-06-10T05:53:12;100033.15;;;22.34;50.05
3748;BME280;1889;50.058;8.688;2023-06-10T05:55:44;100028.41;;;22.45;49.62
3748;BME280;1889;50.058;8.688;2023-06-10T05:58:14;100036.27;;;22.41;49.57
3748;BME280;1889;50.058;8.688;2023-06-10T06:00:43;100039.66;;;22.37;49.79
3748;BME280;1889;50.058;8.688;2023-06-10T06:03:12;100032.68;;;22.48;49.72
3748;BME280;1889;50.058;8.688;2023-06-10T06:05:41;100036.03;;;22.64;49.37
3748;BME280;1889;50.058;8.688;2023-06-10T06:08:10;100032.16;;;22.55;49.81
3748;BME280;1889;50.058;8.688;2023-06-10T06:10:41;100031.05;;;22.65;49.31
3748;BME280;1889;50.058;8.688;2023-06-10T06:13:10;100032.65;;;22.74;49.10
3748;BME280;1889;50.058;8.688;2023-06-10T06:15:39;100029.78;;;22.18;48.55
3748;BME280;1889;50.058;8.688;2023-06-10T06:18:08;100032.56;;;21.97;49.69
3748;BME280;1889;50.058;8.688;2023-06-10T06:20:37;100030.14;;;21.99;49.51
3748;BME280;1889;50.058;8.688;2023-06-10T06:23:06;100026.96;;;22.27;49.13
3748;BME280;1889;50.058;8.688;2023-06-10T06:25:37;100028.16;;;22.35;48.64
3748;BME280;1889;50.058;8.688;2023-06-10T06:28:07;100029.31;;;22.31;48.34
3748;BME280;1889;50.058;8.688;2023-06-10T06:30:37;100034.64;;;22.58;48.00
3748;BME280;1889;50.058;8.688;2023-06-10T06:33:06;100030.61;;;22.71;47.94
3748;BME280;1889;50.058;8.688;2023-06-10T06:35:35;100029.63;;;22.79;47.39
3748;BME280;1889;50.058;8.688;2023-06-10T06:38:06;100030.56;;;22.85;47.07
3748;BME280;1889;50.058;8.688;2023-06-10T06:40:35;100028.45;;;22.96;46.89
3748;BME280;1889;50.058;8.688;2023-06-10T06:43:04;100032.44;;;22.90;46.71
3748;BME280;1889;50.058;8.688;2023-06-10T06:45:33;100035.45;;;22.46;47.18
3748;BME280;1889;50.058;8.688;2023-06-10T06:48:02;100045.98;;;22.69;47.42
3748;BME280;1889;50.058;8.688;2023-06-10T06:50:31;100043.17;;;22.90;46.88
3748;BME280;1889;50.058;8.688;2023-06-10T06:53:00;100040.27;;;23.06;46.87
3748;BME280;1889;50.058;8.688;2023-06-10T06:55:29;100041.78;;;23.10;46.91
3748;BME280;1889;50.058;8.688;2023-06-10T06:57:58;100039.14;;;22.90;46.93
3748;BME280;1889;50.058;8.688;2023-06-10T07:00:29;100039.91;;;22.92;47.48
3748;BME280;1889;50.058;8.688;2023-06-10T07:02:58;100049.60;;;23.13;47.07
3748;BME280;1889;50.058;8.688;2023-06-10T07:05:27;100047.64;;;23.09;46.86
3748;BME280;1889;50.058;8.688;2023-06-10T07:07:56;100043.31;;;23.19;46.76
3748;BME280;1889;50.058;8.688;2023-06-10T07:10:25;100040.63;;;23.19;46.95
3748;BME280;1889;50.058;8.688;2023-06-10T07:12:54;100038.86;;;23.44;46.35
3748;BME280;1889;50.058;8.688;2023-06-10T07:15:23;100041.55;;;23.51;46.23
3748;BME280;1889;50.058;8.688;2023-06-10T07:17:52;100042.64;;;23.54;46.55
3748;BME280;1889;50.058;8.688;2023-06-10T07:20:21;100042.01;;;23.69;46.39
3748;BME280;1889;50.058;8.688;2023-06-10T07:22:51;100041.42;;;23.71;45.68
3748;BME280;1889;50.058;8.688;2023-06-10T07:25:20;100040.75;;;23.80;45.77
3748;BME280;1889;50.058;8.688;2023-06-10T07:27:50;100045.20;;;23.92;45.48
3748;BME280;1889;50.058;8.688;2023-06-10T07:30:18;100051.28;;;23.83;45.30
3748;BME280;1889;50.058;8.688;2023-06-10T07:32:48;100046.98;;;23.80;45.97
3748;BME280;1889;50.058;8.688;2023-06-10T07:35:17;100047.17;;;23.41;46.26
3748;BME280;1889;50.058;8.688;2023-06-10T07:37:46;100045.38;;;23.47;46.43
3748;BME280;1889;50.058;8.688;2023-06-10T07:40:15;100053.70;;;23.62;45.66
3748;BME280;1889;50.058;8.688;2023-06-10T07:42:44;100051.39;;;23.81;45.85
3748;BME280;1889;50.058;8.688;2023-06-10T07:45:13;100052.97;;;24.02;45.28
3748;BME280;1889;50.058;8.688;2023-06-10T07:47:42;100051.30;;;24.07;44.77
3748;BME280;1889;50.058;8.688;2023-06-10T07:50:12;100050.56;;;24.10;44.92
3748;BME280;1889;50.058;8.688;2023-06-10T07:52:41;100051.30;;;24.07;44.85
3748;BME280;1889;50.058;8.688;2023-06-10T07:55:10;100051.95;;;24.16;44.81
3748;BME280;1889;50.058;8.688;2023-06-10T07:57:39;100052.50;;;24.26;44.81
3748;BME280;1889;50.058;8.688;2023-06-10T08:00:09;100052.30;;;23.93;44.69
3748;BME280;1889;50.058;8.688;2023-06-10T08:02:38;100046.22;;;23.96;45.20
3748;BME280;1889;50.058;8.688;2023-06-10T08:05:08;100044.20;;;24.06;45.29
3748;BME280;1889;50.058;8.688;2023-06-10T08:07:37;100051.75;;;24.24;45.46
3748;BME280;1889;50.058;8.688;2023-06-10T08:10:06;100048.23;;;24.06;45.83
3748;BME280;1889;50.058;8.688;2023-06-10T08:12:36;100045.55;;;23.87;45.76
3748;BME280;1889;50.058;8.688;2023-06-10T08:15:05;100051.16;;;24.08;45.81
3748;BME280;1889;50.058;8.688;2023-06-10T08:17:34;100052.02;;;24.27;45.51
3748;BME280;1889;50.058;8.688;2023-06-10T08:20:03;100044.37;;;24.39;44.84
3748;BME280;1889;50.058;8.688;2023-06-10T08:22:33;100052.73;;;24.53;44.87
3748;BME280;1889;50.058;8.688;2023-06-10T08:25:02;100050.41;;;24.48;44.78
3748;BME280;1889;50.058;8.688;2023-06-10T08:27:31;100050.63;;;24.40;45.36
3748;BME280;1889;50.058;8.688;2023-06-10T08:30:00;100047.47;;;24.57;45.38
3748;BME280;1889;50.058;8.688;2023-06-10T08:32:30;100048.64;;;24.71;44.97
3748;BME280;1889;50.058;8.688;2023-06-10T08:34:59;100044.86;;;24.85;44.68
3748;BME280;1889;50.058;8.688;2023-06-10T08:37:28;100046.31;;;24.78;44.86
3748;BME280;1889;50.058;8.688;2023-06-10T08:39:58;100044.63;;;24.88;44.36
3748;BME280;1889;50.058;8.688;2023-06-10T08:42:45;100043.95;;;24.97;44.10
3748;BME280;1889;50.058;8.688;2023-06-10T08:45:18;100042.83;;;24.94;44.08
3748;BME280;1889;50.058;8.688;2023-06-10T08:47:49;100047.50;;;25.03;44.17
3748;BME280;1889;50.058;8.688;2023-06-10T08:50:20;100047.27;;;25.12;44.12
3748;BME280;1889;50.058;8.688;2023-06-10T08:52:54;100037.95;;;25.27;44.12
3748;BME280;1889;50.058;8.688;2023-06-10T08:55:32;100038.70;;;25.29;44.20
3748;BME280;1889;50.058;8.688;2023-06-10T08:58:02;100038.80;;;25.33;44.56
3748;BME280;1889;50.058;8.688;2023-06-10T09:00:32;100038.05;;;25.47;44.70
3748;BME280;1889;50.058;8.688;2023-06-10T09:03:03;100031.96;;;25.29;43.79
3748;BME280;1889;50.058;8.688;2023-06-10T09:05:35;100028.73;;;25.46;43.95
3748;BME280;1889;50.058;8.688;2023-06-10T09:08:06;100029.88;;;25.60;43.47
3748;BME280;1889;50.058;8.688;2023-06-10T09:10:36;100026.90;;;25.58;42.99
3748;BME280;1889;50.058;8.688;2023-06-10T09:13:06;100024.96;;;25.43;43.33
3748;BME280;1889;50.058;8.688;2023-06-10T09:15:35;100016.00;;;25.48;43.30
3748;BME280;1889;50.058;8.688;2023-06-10T09:18:04;100019.80;;;25.62;43.77
3748;BME280;1889;50.058;8.688;2023-06-10T09:20:33;100021.91;;;25.70;43.10
3748;BME280;1889;50.058;8.688;2023-06-10T09:23:02;100017.08;;;25.79;42.64
3748;BME280;1889;50.058;8.688;2023-06-10T09:25:36;100021.62;;;25.84;42.39
3748;BME280;1889;50.058;8.688;2023-06-10T09:28:13;100019.65;;;25.80;43.04
3748;BME280;1889;50.058;8.688;2023-06-10T09:30:37;100016.69;;;25.89;42.58
3748;BME280;1889;50.058;8.688;2023-06-10T09:33:14;100015.92;;;25.98;42.61
3748;BME280;1889;50.058;8.688;2023-06-10T09:35:48;100018.59;;;26.04;42.67
3748;BME280;1889;50.058;8.688;2023-06-10T09:38:21;100015.69;;;26.01;42.73
3748;BME280;1889;50.058;8.688;2023-06-10T09:40:51;100017.73;;;26.03;42.13
3748;BME280;1889;50.058;8.688;2023-06-10T09:43:21;100019.30;;;26.11;42.43
3748;BME280;1889;50.058;8.688;2023-06-10T09:45:51;100013.37;;;26.23;42.43
3748;BME280;1889;50.058;8.688;2023-06-10T09:48:23;100013.87;;;26.22;41.83
3748;BME280;1889;50.058;8.688;2023-06-10T09:50:52;100011.61;;;26.39;42.11
3748;BME280;1889;50.058;8.688;2023-06-10T09:53:21;100014.72;;;26.55;41.50
3748;BME280;1889;50.058;8.688;2023-06-10T09:55:51;100011.28;;;26.53;41.11
3748;BME280;1889;50.058;8.688;2023-06-10T09:58:34;100012.95;;;26.59;41.11
3748;BME280;1889;50.058;8.688;2023-06-10T10:01:10;100010.91;;;26.57;41.24
3748;BME280;1889;50.058;8.688;2023-06-10T10:03:50;99999.77;;;26.72;41.63
3748;BME280;1889;50.058;8.688;2023-06-10T10:06:20;100003.88;;;26.81;41.05
3748;BME280;1889;50.058;8.688;2023-06-10T10:08:50;99994.50;;;26.85;40.84
3748;BME280;1889;50.058;8.688;2023-06-10T10:11:21;99989.20;;;26.89;40.48
3748;BME280;1889;50.058;8.688;2023-06-10T10:13:51;99988.56;;;26.97;40.36
3748;BME280;1889;50.058;8.688;2023-06-10T10:16:23;99982.42;;;27.10;40.52
3748;BME280;1889;50.058;8.688;2023-06-10T10:18:59;99981.56;;;27.10;40.13
3748;BME280;1889;50.058;8.688;2023-06-10T10:21:29;99973.41;;;27.00;40.11
3748;BME280;1889;50.058;8.688;2023-06-10T10:24:21;99979.46;;;27.13;40.38
3748;BME280;1889;50.058;8.688;2023-06-10T10:26:37;99973.09;;;27.09;39.79
3748;BME280;1889;50.058;8.688;2023-06-10T10:29:23;99965.75;;;27.20;39.86
3748;BME280;1889;50.058;8.688;2023-06-10T10:31:51;99963.09;;;27.30;39.62
3748;BME280;1889;50.058;8.688;2023-06-10T10:34:43;99973.31;;;27.26;39.55
3748;BME280;1889;50.058;8.688;2023-06-10T10:37:11;99972.16;;;27.44;39.75
3748;BME280;1889;50.058;8.688;2023-06-10T10:39:41;99975.42;;;27.53;38.97
3748;BME280;1889;50.058;8.688;2023-06-10T10:42:10;99976.57;;;27.60;38.55
3748;BME280;1889;50.058;8.688;2023-06-10T10:44:40;99970.73;;;27.55;38.49
3748;BME280;1889;50.058;8.688;2023-06-10T10:47:10;99971.73;;;27.54;36.90
3748;BME280;1889;50.058;8.688;2023-06-10T10:49:41;99961.27;;;27.55;37.43
3748;BME280;1889;50.058;8.688;2023-06-10T10:52:14;99963.64;;;27.64;36.33
3748;BME280;1889;50.058;8.688;2023-06-10T10:54:46;99965.69;;;27.56;37.16
3748;BME280;1889;50.058;8.688;2023-06-10T10:57:18;99963.78;;;27.47;37.31
3748;BME280;1889;50.058;8.688;2023-06-10T11:00:00;99961.50;;;27.52;37.03
3748;BME280;1889;50.058;8.688;2023-06-10T11:02:46;99964.41;;;27.60;36.30
3748;BME280;1889;50.058;8.688;2023-06-10T11:05:16;99958.41;;;27.57;36.13
3748;BME280;1889;50.058;8.688;2023-06-10T11:07:56;99954.81;;;27.71;35.25
3748;BME280;1889;50.058;8.688;2023-06-10T11:10:33;99960.94;;;27.83;35.21
3748;BME280;1889;50.058;8.688;2023-06-10T11:13:10;99949.19;;;28.07;34.63
3748;BME280;1889;50.058;8.688;2023-06-10T11:15:45;99951.12;;;28.11;35.11
3748;BME280;1889;50.058;8.688;2023-06-10T11:18:25;99941.59;;;28.17;34.77
3748;BME280;1889;50.058;8.688;2023-06-10T11:20:57;99940.60;;;28.27;35.35
3748;BME280;1889;50.058;8.688;2023-06-10T11:23:32;99942.13;;;28.39;34.51
3748;BME280;1889;50.058;8.688;2023-06-10T11:26:15;99935.70;;;28.50;34.42
3748;BME280;1889;50.058;8.688;2023-06-10T11:31:29;99931.55;;;28.89;34.11
3748;BME280;1889;50.058;8.688;2023-06-10T11:34:01;99934.44;;;29.01;33.92
3748;BME280;1889;50.058;8.688;2023-06-10T11:36:32;99930.16;;;28.98;33.77
3748;BME280;1889;50.058;8.688;2023-06-10T11:39:03;99929.30;;;29.11;33.65
3748;BME280;1889;50.058;8.688;2023-06-10T11:41:34;99938.24;;;29.21;33.07
3748;BME280;1889;50.058;8.688;2023-06-10T11:44:13;99931.22;;;29.15;32.76
3748;BME280;1889;50.058;8.688;2023-06-10T11:46:39;99933.83;;;28.93;31.94
3748;BME280;1889;50.058;8.688;2023-06-10T11:49:10;99931.41;;;28.90;32.24
3748;BME280;1889;50.058;8.688;2023-06-10T11:51:41;99939.27;;;28.74;31.83
3748;BME280;1889;50.058;8.688;2023-06-10T11:54:11;99930.30;;;28.83;32.37
3748;BME280;1889;50.058;8.688;2023-06-10T11:56:40;99930.55;;;28.90;31.43
3748;BME280;1889;50.058;8.688;2023-06-10T11:59:09;99930.55;;;29.03;32.11
3748;BME280;1889;50.058;8.688;2023-06-10T12:01:43;99934.83;;;29.06;32.10
3748;BME280;1889;50.058;8.688;2023-06-10T12:04:14;99931.91;;;28.90;32.38
3748;BME280;1889;50.058;8.688;2023-06-10T12:06:51;99931.69;;;28.87;32.70
3748;BME280;1889;50.058;8.688;2023-06-10T12:09:30;99931.02;;;28.99;32.59
3748;BME280;1889;50.058;8.688;2023-06-10T12:12:03;99929.66;;;29.12;31.53
3748;BME280;1889;50.058;8.688;2023-06-10T12:14:59;99915.29;;;29.30;31.64
3748;BME280;1889;50.058;8.688;2023-06-10T12:17:35;99909.64;;;29.50;31.70
3748;BME280;1889;50.058;8.688;2023-06-10T12:20:07;99910.88;;;29.15;30.44
3748;BME280;1889;50.058;8.688;2023-06-10T12:22:41;99910.88;;;29.15;31.29
3748;BME280;1889;50.058;8.688;2023-06-10T12:25:11;99913.19;;;29.23;31.49
3748;BME280;1889;50.058;8.688;2023-06-10T12:27:51;99907.47;;;28.99;32.16
3748;BME280;1889;50.058;8.688;2023-06-10T12:30:23;99909.72;;;29.04;32.98
3748;BME280;1889;50.058;8.688;2023-06-10T12:32:52;99906.14;;;28.66;33.17
3748;BME280;1889;50.058;8.688;2023-06-10T12:35:24;99908.64;;;28.64;33.90
3748;BME280;1889;50.058;8.688;2023-06-10T12:38:01;99903.42;;;28.53;34.05
3748;BME280;1889;50.058;8.688;2023-06-10T12:40:34;99905.34;;;28.46;34.24
3748;BME280;1889;50.058;8.688;2023-06-10T12:43:03;99905.45;;;28.55;33.94
3748;BME280;1889;50.058;8.688;2023-06-10T12:45:37;99900.11;;;28.59;33.39
3748;BME280;1889;50.058;8.688;2023-06-10T12:48:09;99899.59;;;28.69;33.22
3748;BME280;1889;50.058;8.688;2023-06-10T12:50:41;99901.80;;;28.93;33.08
3748;BME280;1889;50.058;8.688;2023-06-10T12:53:11;99899.19;;;29.14;32.31
3748;BME280;1889;50.058;8.688;2023-06-10T12:55:40;99900.47;;;29.51;32.65
3748;BME280;1889;50.058;8.688;2023-06-10T12:58:09;99886.41;;;29.87;31.87
3748;BME280;1889;50.058;8.688;2023-06-10T13:00:38;99886.31;;;30.37;31.43
3748;BME280;1889;50.058;8.688;2023-06-10T13:03:09;99887.30;;;30.53;29.69
3748;BME280;1889;50.058;8.688;2023-06-10T13:05:39;99885.44;;;30.54;29.45
3748;BME280;1889;50.058;8.688;2023-06-10T13:08:08;99878.66;;;30.32;28.66
3748;BME280;1889;50.058;8.688;2023-06-10T13:10:40;99884.45;;;30.93;29.44
3748;BME280;1889;50.058;8.688;2023-06-10T13:13:10;99875.95;;;31.34;28.44
3748;BME280;1889;50.058;8.688;2023-06-10T13:15:39;99880.86;;;31.26;28.01
3748;BME280;1889;50.058;8.688;2023-06-10T13:18:08;99875.52;;;31.63;28.73
3748;BME280;1889;50.058;8.688;2023-06-10T13:20:38;99884.68;;;31.54;28.87
3748;BME280;1889;50.058;8.688;2023-06-10T13:23:07;99879.66;;;31.21;29.16
3748;BME280;1889;50.058;8.688;2023-06-10T13:25:36;99868.80;;;30.87;29.72
3748;BME280;1889;50.058;8.688;2023-06-10T13:28:05;99880.27;;;30.25;30.48
3748;BME280;1889;50.058;8.688;2023-06-10T13:30:35;99879.22;;;30.44;30.58
3748;BME280;1889;50.058;8.688;2023-06-10T13:33:04;99880.73;;;30.38;30.75
3748;BME280;1889;50.058;8.688;2023-06-10T13:35:33;99880.47;;;30.27;30.77
3748;BME280;1889;50.058;8.688;2023-06-10T13:38:02;99877.75;;;30.27;30.45
3748;BME280;1889;50.058;8.688;2023-06-10T13:40:31;99883.62;;;29.79;30.51
3748;BME280;1889;50.058;8.688;2023-06-10T13:43:00;99874.66;;;30.01;29.62